Time;durP1;ratioP1;P1;durP2;ratioP2;P2;SDS_P1;SDS_P2;PMS_P1;PMS_P2;Temp;Humidity;BMP_temperature;BMP_pressure;BME280_temperature;BME280_humidity;BME280_pressure;Samples;Min_cycle;Max_cycle;Signal;HPM_P1;HPM_P2
2022/04/02 00:00:44;;;;;;;4.82;1.10;;;;;;;26.06;28.58;95302.59;4920802;28;20774;-29
2022/04/02 00:03:10;;;;;;;2.30;1.17;;;;;;;26.05;28.65;95300.91;4928149;28;20031;-28
2022/04/02 00:05:35;;;;;;;7.15;1.77;;;;;;;26.05;28.08;95294.84;4926855;28;20043;-28
2022/04/02 00:08:01;;;;;;;2.95;1.50;;;;;;;26.04;28.33;95294.00;4918959;28;20032;-30
2022/04/02 00:10:26;;;;;;;2.55;1.20;;;;;;;26.04;28.43;95299.25;4928395;28;20020;-29
2022/04/02 00:12:54;;;;;;;1.63;1.10;;;;;;;26.04;28.36;95295.75;4926067;28;20134;-27
2022/04/02 00:15:19;;;;;;;1.83;0.90;;;;;;;26.04;28.17;95299.25;4927444;28;20041;-31
2022/04/02 00:17:45;;;;;;;1.75;1.23;;;;;;;26.03;28.17;95294.94;4928368;28;20058;-29
2022/04/02 00:20:11;;;;;;;2.88;1.35;;;;;;;26.03;28.21;95296.72;4927856;28;20039;-27
2022/04/02 00:22:36;;;;;;;2.33;1.23;;;;;;;26.02;28.38;95298.53;4930233;28;20035;-32
2022/04/02 00:25:02;;;;;;;2.10;1.10;;;;;;;26.02;28.54;95295.91;4931028;28;20043;-28
2022/04/02 00:27:27;;;;;;;3.67;1.50;;;;;;;26.01;28.52;95299.47;4929644;28;20399;-30
2022/04/02 00:29:53;;;;;;;1.48;1.15;;;;;;;26.02;28.25;95301.16;4929540;28;20031;-29
2022/04/02 00:32:18;;;;;;;1.77;0.93;;;;;;;26.01;28.35;95299.47;4918557;28;20032;-30
2022/04/02 00:34:43;;;;;;;2.20;1.02;;;;;;;26.02;28.34;95295.91;4925128;28;20766;-28
2022/04/02 00:37:09;;;;;;;3.22;1.20;;;;;;;26.01;28.20;95293.41;4929177;28;20035;-29
2022/04/02 00:39:34;;;;;;;2.78;1.40;;;;;;;26.00;28.41;95297.81;4928767;28;20047;-28
2022/04/02 00:42:00;;;;;;;2.45;1.40;;;;;;;26.00;28.54;95303.06;4919674;28;20505;-29
2022/04/02 00:44:26;;;;;;;3.65;1.08;;;;;;;26.01;28.41;95302.09;4918014;28;20035;-28
2022/04/02 00:46:51;;;;;;;1.10;0.80;;;;;;;26.01;28.39;95302.09;4924685;28;20673;-28
2022/04/02 00:49:17;;;;;;;3.55;1.35;;;;;;;26.01;28.47;95304.72;4921310;28;20154;-28
2022/04/02 00:51:43;;;;;;;2.38;1.13;;;;;;;26.00;28.40;95297.81;4924023;28;20727;-28
2022/04/02 00:54:09;;;;;;;1.52;0.98;;;;;;;26.01;28.21;95294.22;4927210;28;20037;-28
2022/04/02 00:56:38;;;;;;;1.30;1.20;;;;;;;26.01;28.40;95296.03;4926773;28;20542;-30
2022/04/02 00:59:03;;;;;;;1.02;0.85;;;;;;;26.00;28.27;95289.94;4928616;28;20510;-32
2022/04/02 01:01:31;;;;;;;1.65;1.00;;;;;;;26.00;28.48;95297.81;4945098;28;20506;-29
2022/04/02 01:03:57;;;;;;;3.95;1.10;;;;;;;26.00;28.24;95291.75;4930876;28;20118;-29
2022/04/02 01:06:22;;;;;;;2.25;1.00;;;;;;;26.00;28.32;95294.38;4931889;28;20035;-30
2022/04/02 01:08:47;;;;;;;2.03;1.23;;;;;;;25.98;28.05;95289.22;4928819;28;20031;-28
2022/04/02 01:11:13;;;;;;;2.45;1.20;;;;;;;26.00;27.98;95297.00;4929546;28;20034;-29
2022/04/02 01:13:39;;;;;;;4.13;0.90;;;;;;;25.99;28.02;95301.38;4928093;28;20032;-29
2022/04/02 01:16:05;;;;;;;3.45;1.00;;;;;;;26.00;28.26;95302.25;4925804;28;20044;-29
2022/04/02 01:18:30;;;;;;;3.10;1.30;;;;;;;25.97;28.38;95295.41;4926462;28;20513;-28
2022/04/02 01:20:55;;;;;;;1.48;1.00;;;;;;;25.99;28.36;95301.38;4928778;28;20048;-28
2022/04/02 01:23:28;;;;;;;1.55;0.90;;;;;;;25.99;27.99;95304.00;4926437;28;20027;-27
2022/04/02 01:25:54;;;;;;;1.70;1.00;;;;;;;25.99;27.98;95306.66;4925235;28;20230;-29
2022/04/02 01:28:19;;;;;;;2.58;1.17;;;;;;;25.96;28.34;95305.09;4926349;28;20704;-27
2022/04/02 01:30:45;;;;;;;1.45;1.00;;;;;;;25.98;27.94;95309.38;4928345;28;20790;-27
2022/04/02 01:33:11;;;;;;;2.22;1.25;;;;;;;25.97;27.95;95311.16;4926505;28;20089;-28
2022/04/02 01:35:36;;;;;;;1.77;1.13;;;;;;;25.98;28.55;95304.13;4917575;28;20023;-30
2022/04/02 01:38:02;;;;;;;1.35;1.00;;;;;;;25.98;28.14;95304.97;4927581;28;20481;-28
2022/04/02 01:40:27;;;;;;;1.77;0.80;;;;;;;25.96;28.16;95312.13;4931315;28;20035;-29
2022/04/02 01:42:52;;;;;;;1.55;0.77;;;;;;;25.96;28.15;95307.72;4931365;28;20482;-28
2022/04/02 01:45:18;;;;;;;2.40;0.90;;;;;;;25.96;28.18;95312.97;4924744;28;20525;-28
2022/04/02 01:47:43;;;;;;;0.80;0.70;;;;;;;25.95;28.20;95313.94;4934297;28;20032;-28
2022/04/02 01:50:10;;;;;;;1.33;1.00;;;;;;;25.96;28.22;95312.97;4919565;28;20030;-29
2022/04/02 01:52:36;;;;;;;1.05;0.88;;;;;;;25.96;27.88;95309.50;4928215;28;20428;-28
2022/04/02 01:55:01;;;;;;;1.08;0.90;;;;;;;25.96;28.01;95309.50;4929230;28;20035;-28
2022/04/02 01:57:26;;;;;;;1.35;0.73;;;;;;;25.95;28.31;95305.22;4922565;28;20089;-29
2022/04/02 01:59:52;;;;;;;1.65;0.90;;;;;;;25.94;28.17;95308.78;4923976;28;21090;-29
2022/04/02 02:02:20;;;;;;;1.50;1.00;;;;;;;25.95;28.07;95307.84;4930924;28;20035;-28
2022/04/02 02:04:45;;;;;;;2.80;0.82;;;;;;;25.95;28.08;95305.22;4928522;28;20035;-29
2022/04/02 02:07:10;;;;;;;2.22;1.10;;;;;;;25.95;27.97;95310.47;4927155;28;20205;-27
2022/04/02 02:09:36;;;;;;;1.10;1.00;;;;;;;25.95;28.42;95310.47;4930332;28;20031;-29
2022/04/02 02:12:02;;;;;;;1.23;0.93;;;;;;;25.95;28.46;95313.09;4928770;28;20031;-29
2022/04/02 02:14:28;;;;;;;1.88;1.10;;;;;;;25.94;28.17;95314.03;4928881;28;20034;-28
2022/04/02 02:16:54;;;;;;;4.18;1.00;;;;;;;25.93;27.98;95313.19;4927920;28;20039;-28
2022/04/02 02:19:19;;;;;;;1.10;0.75;;;;;;;25.93;28.07;95318.44;4928153;28;20097;-28
2022/04/02 02:21:45;;;;;;;2.05;0.73;;;;;;;25.94;28.07;95321.91;4923256;28;20035;-28
2022/04/02 02:24:10;;;;;;;1.95;0.90;;;;;;;25.93;27.91;95322.88;4928791;28;20031;-29
2022/04/02 02:26:35;;;;;;;1.95;0.80;;;;;;;25.92;28.24;95323.81;4930472;28;20046;-27
2022/04/02 02:29:04;;;;;;;0.80;0.77;;;;;;;25.93;28.35;95330.75;4916323;28;20053;-28
2022/04/02 02:31:30;;;;;;;1.63;0.85;;;;;;;25.94;28.18;95340.28;4912810;28;20031;-32
2022/04/02 02:36:40;;;;;;;0.70;0.68;;;;;;;25.91;27.89;95327.38;4906208;28;20041;-27
2022/04/02 02:39:05;;;;;;;0.98;0.65;;;;;;;25.92;27.78;95337.78;4916263;28;20031;-27
2022/04/02 02:41:30;;;;;;;1.20;0.70;;;;;;;25.93;28.41;95336.00;4913948;28;20034;-28
2022/04/02 02:43:56;;;;;;;0.90;0.70;;;;;;;25.92;28.11;95334.31;4915568;28;20102;-30
2022/04/02 02:46:21;;;;;;;1.52;0.75;;;;;;;25.92;27.98;95336.94;4929896;28;20711;-27
2022/04/02 02:48:47;;;;;;;1.08;0.70;;;;;;;25.92;28.04;95336.94;4923563;28;20035;-27
2022/04/02 02:51:13;;;;;;;1.17;0.88;;;;;;;25.91;27.95;95341.34;4918995;28;20031;-28
2022/04/02 02:53:38;;;;;;;2.28;0.80;;;;;;;25.92;28.24;95336.94;4916182;28;20522;-29
2022/04/02 02:56:04;;;;;;;1.88;0.63;;;;;;;25.91;28.04;95337.88;4926684;28;20151;-27
2022/04/02 02:58:30;;;;;;;1.02;0.80;;;;;;;25.91;28.07;95341.34;4923335;28;20045;-29
2022/04/02 03:00:55;;;;;;;1.77;0.80;;;;;;;25.92;28.12;95347.44;4924121;28;20034;-28
2022/04/02 03:03:22;;;;;;;1.17;0.90;;;;;;;25.91;28.14;95343.13;4926318;28;20027;-28
2022/04/02 03:05:48;;;;;;;2.45;0.73;;;;;;;25.90;28.20;95346.72;4928331;28;20038;-30
2022/04/02 03:08:13;;;;;;;0.60;0.60;;;;;;;25.91;27.97;95354.47;4926045;28;20117;-29
2022/04/02 03:10:40;;;;;;;1.52;0.70;;;;;;;25.90;28.19;95351.97;4921955;28;20348;-29
2022/04/02 03:13:06;;;;;;;1.08;0.82;;;;;;;25.89;27.90;95347.69;4919892;28;20114;-27
2022/04/02 03:15:31;;;;;;;1.25;0.88;;;;;;;25.89;27.98;95342.44;4924599;28;20402;-29
2022/04/02 03:18:02;;;;;;;2.83;0.93;;;;;;;25.88;27.78;95359.97;4920645;28;20035;-26
2022/04/02 03:20:28;;;;;;;1.00;0.68;;;;;;;25.90;28.33;95357.22;4923908;28;20546;-29
2022/04/02 03:22:54;;;;;;;1.23;0.70;;;;;;;25.88;28.11;95351.25;4927100;28;20067;-28
2022/04/02 03:25:19;;;;;;;1.90;0.73;;;;;;;25.88;28.32;95356.47;4929812;28;20579;-28
2022/04/02 03:27:46;;;;;;;0.95;0.80;;;;;;;25.88;27.94;95362.59;4927119;28;20110;-27
2022/04/02 03:30:14;;;;;;;1.77;0.80;;;;;;;25.88;27.77;95357.34;4929841;28;20067;-29
2022/04/02 03:32:40;;;;;;;0.77;0.70;;;;;;;25.87;27.95;95360.06;4930048;28;20020;-29
2022/04/02 03:35:06;;;;;;;0.68;0.68;;;;;;;25.87;28.13;95360.06;4923594;28;20043;-29
2022/04/02 03:37:33;;;;;;;0.90;0.80;;;;;;;25.87;28.02;95360.06;4930551;28;20031;-28
2022/04/02 03:39:59;;;;;;;2.70;1.02;;;;;;;25.87;28.01;95367.94;4943064;28;20500;-26
2022/04/02 03:42:25;;;;;;;2.50;0.70;;;;;;;25.87;27.72;95370.56;4924656;28;20031;-29
2022/04/02 03:44:51;;;;;;;1.17;0.73;;;;;;;25.87;28.08;95365.31;4926926;28;20058;-28
2022/04/02 03:47:16;;;;;;;0.70;0.60;;;;;;;25.87;27.92;95365.31;4932007;28;20118;-29
2022/04/02 03:49:46;;;;;;;1.65;0.77;;;;;;;25.87;28.13;95368.78;4920831;28;20027;-28
2022/04/02 03:52:11;;;;;;;1.55;0.63;;;;;;;25.87;27.80;95365.31;4924721;28;20105;-28
2022/04/02 03:54:38;;;;;;;1.00;0.65;;;;;;;25.86;28.30;95368.91;4926975;28;20058;-27
2022/04/02 03:57:07;;;;;;;1.30;0.90;;;;;;;25.86;27.61;95369.75;4933386;28;20046;-27
2022/04/02 03:59:32;;;;;;;1.77;0.90;;;;;;;25.86;27.80;95376.78;4930188;28;20537;-27
2022/04/02 04:01:58;;;;;;;2.10;0.80;;;;;;;25.86;27.82;95377.63;4918817;28;20055;-28
2022/04/02 04:04:24;;;;;;;3.83;1.40;;;;;;;25.86;28.16;95374.16;4919875;28;20057;-34
2022/04/02 04:06:51;;;;;;;6.43;1.23;;;;;;;25.84;27.89;95382.13;4921203;28;20044;-27
2022/04/02 04:09:17;;;;;;;2.15;1.00;;;;;;;25.83;27.57;95383.09;4920302;28;20665;-29
2022/04/02 04:11:42;;;;;;;1.08;0.70;;;;;;;25.82;27.65;95384.88;4920952;28;20115;-27
2022/04/02 04:14:08;;;;;;;2.25;0.90;;;;;;;25.82;27.91;95382.25;4920558;28;20031;-26
2022/04/02 04:16:34;;;;;;;2.17;1.10;;;;;;;25.83;28.19;95391.78;4935016;28;20035;-29
2022/04/02 04:18:59;;;;;;;2.33;0.63;;;;;;;25.82;27.81;95389.31;4918937;28;20031;-28
2022/04/02 04:21:24;;;;;;;1.27;0.93;;;;;;;25.82;28.08;95392.75;4922517;28;20035;-28
2022/04/02 04:23:50;;;;;;;0.80;0.73;;;;;;;25.82;28.32;95392.75;4921200;28;20043;-29
2022/04/02 04:26:16;;;;;;;2.78;1.02;;;;;;;25.82;28.00;95400.63;4919203;28;21023;-30
2022/04/02 04:28:41;;;;;;;5.70;0.90;;;;;;;25.83;28.23;95409.34;4924687;28;20035;-31
2022/04/02 04:31:07;;;;;;;0.98;0.60;;;;;;;25.83;28.15;95411.97;4922114;28;20521;-27
2022/04/02 04:33:33;;;;;;;2.00;0.80;;;;;;;25.83;27.68;95417.22;4922795;28;20059;-31
2022/04/02 04:35:59;;;;;;;0.70;0.60;;;;;;;25.83;27.66;95410.16;4933012;28;20039;-27
2022/04/02 04:38:24;;;;;;;1.23;0.73;;;;;;;25.82;27.82;95411.13;4929169;28;20031;-29
2022/04/02 04:40:50;;;;;;;3.10;0.80;;;;;;;25.82;28.13;95413.75;4928253;28;20031;-28
2022/04/02 04:43:15;;;;;;;1.40;0.68;;;;;;;25.82;28.25;95424.22;4928435;28;20027;-27
2022/04/02 04:45:40;;;;;;;2.40;0.70;;;;;;;25.81;28.24;95425.19;4931666;28;20564;-28
2022/04/02 04:48:06;;;;;;;1.60;0.82;;;;;;;25.81;27.87;95427.81;4930521;28;20032;-29
2022/04/02 04:50:32;;;;;;;1.85;0.70;;;;;;;25.81;27.72;95425.19;4926313;28;20398;-27
2022/04/02 04:52:57;;;;;;;3.22;0.80;;;;;;;25.81;27.94;95425.19;4921437;28;20043;-27
2022/04/02 04:55:23;;;;;;;7.32;2.25;;;;;;;25.80;28.19;95431.41;4924030;28;20117;-28
2022/04/02 04:57:49;;;;;;;1.15;0.73;;;;;;;25.81;27.86;95430.44;4928608;28;20126;-28
2022/04/02 05:00:15;;;;;;;1.48;0.80;;;;;;;25.81;28.06;95430.44;4930244;28;20046;-27
2022/04/02 05:02:44;;;;;;;1.58;0.70;;;;;;;25.81;27.69;95432.22;4942342;28;20449;-27
2022/04/02 05:05:11;;;;;;;0.60;0.60;;;;;;;25.80;27.94;95436.66;4934269;28;20245;-26
2022/04/02 05:07:37;;;;;;;1.13;0.77;;;;;;;25.81;27.93;95440.94;4933130;28;20406;-29
2022/04/02 05:10:03;;;;;;;0.98;0.60;;;;;;;25.78;28.07;95441.16;4933832;28;20103;-28
2022/04/02 05:12:28;;;;;;;0.65;0.52;;;;;;;25.81;28.16;95446.19;4928091;28;20771;-28
2022/04/02 05:14:54;;;;;;;1.35;0.80;;;;;;;25.81;27.85;95451.44;4938649;28;20449;-28
2022/04/02 05:17:19;;;;;;;1.08;0.57;;;;;;;25.81;27.95;95450.59;4931333;28;20593;-28
2022/04/02 05:19:45;;;;;;;1.13;0.80;;;;;;;25.81;27.97;95450.59;4930675;28;20023;-28
2022/04/02 05:22:10;;;;;;;1.13;0.90;;;;;;;25.81;28.19;95461.09;4947007;28;20061;-27
2022/04/02 05:24:37;;;;;;;0.88;0.60;;;;;;;25.81;28.07;95447.97;4944154;28;20039;-30
2022/04/02 05:27:03;;;;;;;1.20;0.73;;;;;;;25.81;28.15;95467.19;4925110;28;20039;-29
2022/04/02 05:29:29;;;;;;;0.50;0.50;;;;;;;25.81;28.29;95456.69;4922597;28;20497;-28
2022/04/02 05:31:55;;;;;;;1.05;0.60;;;;;;;25.82;27.74;95462.78;4930688;28;20024;-29
2022/04/02 05:34:20;;;;;;;2.05;0.50;;;;;;;25.82;27.81;95468.84;4923245;28;20035;-29
2022/04/02 05:36:46;;;;;;;1.15;0.65;;;;;;;25.80;28.18;95465.50;4926661;28;20616;-30
2022/04/02 05:39:11;;;;;;;1.95;0.60;;;;;;;25.83;27.85;95475.75;4927911;28;20040;-29
2022/04/02 05:41:37;;;;;;;0.50;0.50;;;;;;;25.83;27.91;95475.75;4925115;28;20089;-28
2022/04/02 05:44:04;;;;;;;1.30;0.73;;;;;;;25.83;27.92;95474.94;4930336;28;20054;-27
2022/04/02 05:46:30;;;;;;;0.93;0.55;;;;;;;25.85;27.81;95487.94;4926481;28;20352;-27
2022/04/02 05:48:55;;;;;;;0.93;0.55;;;;;;;25.86;27.66;95484.38;4919003;28;20521;-29
2022/04/02 05:51:20;;;;;;;0.85;0.70;;;;;;;25.85;27.97;95482.69;4926641;28;20043;-31
2022/04/02 05:53:46;;;;;;;1.30;0.80;;;;;;;25.86;27.84;95490.47;4922132;28;20042;-31
2022/04/02 05:56:11;;;;;;;1.95;0.77;;;;;;;25.87;27.72;95491.28;4927875;28;20031;-28
2022/04/02 05:58:37;;;;;;;0.73;0.70;;;;;;;25.87;27.95;95496.53;4926606;28;20094;-27
2022/04/02 06:01:03;;;;;;;0.85;0.50;;;;;;;25.88;27.69;95498.19;4928805;28;20557;-33
2022/04/02 06:03:28;;;;;;;0.98;0.60;;;;;;;25.89;27.81;95507.78;4929690;28;20039;-28
2022/04/02 06:05:54;;;;;;;1.08;0.70;;;;;;;25.89;27.93;95505.16;4927943;28;20131;-28
2022/04/02 06:08:20;;;;;;;0.50;0.50;;;;;;;25.90;27.81;95506.81;4926849;28;20738;-27
2022/04/02 06:10:45;;;;;;;0.65;0.60;;;;;;;25.90;27.81;95506.81;4944701;28;20034;-29
2022/04/02 06:13:11;;;;;;;0.60;0.60;;;;;;;25.89;27.71;95511.22;4925756;28;20027;-29
2022/04/02 06:15:37;;;;;;;0.95;0.60;;;;;;;25.90;27.62;95510.25;4923591;28;20053;-31
2022/04/02 06:18:03;;;;;;;0.63;0.50;;;;;;;25.92;27.69;95515.41;4929328;28;20033;-29
2022/04/02 06:20:28;;;;;;;0.60;0.60;;;;;;;25.92;27.83;95510.16;4930005;28;20034;-28
2022/04/02 06:22:54;;;;;;;1.13;0.60;;;;;;;25.92;27.66;95525.91;4928758;28;20912;-28
2022/04/02 06:25:19;;;;;;;0.93;0.57;;;;;;;25.91;27.91;95524.22;4933508;28;20035;-27
2022/04/02 06:27:45;;;;;;;1.33;0.70;;;;;;;25.93;27.83;95522.34;4922303;28;20387;-29
2022/04/02 06:30:12;;;;;;;0.63;0.50;;;;;;;25.93;27.85;95527.59;4925880;28;20123;-27
2022/04/02 06:32:38;;;;;;;0.85;0.65;;;;;;;25.93;27.79;95525.78;4925597;28;20573;-28
2022/04/02 06:35:04;;;;;;;0.70;0.57;;;;;;;25.93;27.77;95527.59;4922225;28;20035;-32
2022/04/02 06:37:40;;;;;;;0.73;0.60;;;;;;;25.94;27.98;95534.50;4927185;28;20032;-27
2022/04/02 06:40:07;;;;;;;0.63;0.60;;;;;;;25.92;27.72;95526.75;4928121;28;20035;-28
2022/04/02 06:42:32;;;;;;;2.35;0.50;;;;;;;25.95;27.53;95530.94;4928757;28;20106;-27
2022/04/02 06:44:58;;;;;;;0.30;0.30;;;;;;;25.95;27.71;95530.94;4928828;28;20042;-28
2022/04/02 06:47:27;;;;;;;0.60;0.60;;;;;;;25.96;28.00;95536.06;4925928;28;20198;-28
2022/04/02 06:49:53;;;;;;;5.60;0.57;;;;;;;25.96;27.81;95532.59;4917852;28;20051;-27
2022/04/02 06:52:18;;;;;;;4.05;0.50;;;;;;;25.95;27.89;95544.91;4916010;28;20050;-26
2022/04/02 06:54:43;;;;;;;1.10;0.60;;;;;;;25.97;27.73;95539.50;4923704;28;20046;-28
2022/04/02 06:57:09;;;;;;;11.88;1.10;;;;;;;25.97;27.81;95544.75;4925289;28;20086;-29
2022/04/02 06:59:34;;;;;;;8.80;2.58;;;;;;;25.98;27.95;95550.88;4923469;28;20568;-29
2022/04/02 07:02:01;;;;;;;10.48;1.98;;;;;;;25.96;27.67;95553.59;4925664;28;20055;-30
2022/04/02 07:04:27;;;;;;;13.60;2.45;;;;;;;25.95;27.65;95555.41;4922311;28;20051;-30
2022/04/02 07:06:52;;;;;;;12.43;2.75;;;;;;;25.95;27.63;95554.56;4921514;28;20027;-32
2022/04/02 07:09:18;;;;;;;7.28;2.60;;;;;;;25.94;27.68;95568.63;4919475;28;20030;-31
2022/04/02 07:11:43;;;;;;;13.30;3.08;;;;;;;25.95;27.67;95567.69;4919481;28;20027;-27
2022/04/02 07:14:09;;;;;;;8.25;2.88;;;;;;;25.95;27.94;95572.94;4919023;28;20035;-32
2022/04/02 07:16:36;;;;;;;8.93;2.75;;;;;;;25.96;27.90;95579.84;4923249;28;20062;-31
2022/04/02 07:19:01;;;;;;;8.68;2.80;;;;;;;25.96;27.62;95585.09;4922069;28;20031;-29
2022/04/02 07:21:27;;;;;;;6.53;2.45;;;;;;;25.97;27.79;95586.75;4921235;28;20038;-33
2022/04/02 07:23:53;;;;;;;12.00;2.72;;;;;;;25.98;27.84;95593.72;4938028;28;20035;-29
2022/04/02 07:26:18;;;;;;;11.35;2.58;;;;;;;25.99;27.73;95595.38;4937140;28;20038;-29
2022/04/02 07:28:44;;;;;;;8.75;2.97;;;;;;;26.00;28.11;95602.28;4918663;28;20080;-28
2022/04/02 07:31:09;;;;;;;6.68;2.55;;;;;;;26.02;27.85;95603.03;4918657;28;20409;-29
2022/04/02 07:33:35;;;;;;;12.35;2.88;;;;;;;26.02;27.51;95610.91;4918882;28;20114;-28
2022/04/02 07:36:04;;;;;;;10.30;2.60;;;;;;;26.03;27.70;95612.59;4918072;28;20057;-32
2022/04/02 07:38:40;;;;;;;5.25;2.05;;;;;;;26.05;27.81;95613.28;4937656;28;20034;-28
2022/04/02 07:41:24;;;;;;;7.45;2.45;;;;;;;26.05;27.97;95623.78;4920055;28;20035;-27
2022/04/02 07:43:51;;;;;;;19.75;2.50;;;;;;;26.05;27.87;95626.41;4915677;28;20038;-29
2022/04/02 07:46:24;;;;;;;7.30;2.10;;;;;;;26.06;28.22;95630.75;4920298;28;20130;-29
2022/04/02 07:48:49;;;;;;;4.68;1.88;;;;;;;26.06;27.87;95633.38;4904207;28;20028;-30
2022/04/02 07:51:16;;;;;;;5.10;2.03;;;;;;;26.08;28.29;95636.72;4918070;28;20837;-30
2022/04/02 07:53:46;;;;;;;5.85;1.92;;;;;;;26.09;28.13;95632.31;4920369;28;20046;-29
2022/04/02 07:56:18;;;;;;;4.07;1.80;;;;;;;26.09;28.17;95637.56;4919458;28;20031;-29
2022/04/02 07:58:46;;;;;;;3.53;1.60;;;;;;;26.10;28.22;95640.03;4933477;28;20074;-30
2022/04/02 08:01:13;;;;;;;5.32;2.00;;;;;;;26.09;28.07;95643.63;4915664;28;20082;-31
2022/04/02 08:03:40;;;;;;;35.20;2.30;;;;;;;26.10;28.30;95644.47;4917269;28;20093;-31
2022/04/02 08:06:05;;;;;;;4.22;1.70;;;;;;;26.12;28.08;95652.25;4935997;28;20048;-28
2022/04/02 08:08:30;;;;;;;5.97;1.88;;;;;;;26.11;28.11;95654.03;4936431;28;20402;-30
2022/04/02 08:10:56;;;;;;;7.57;1.90;;;;;;;26.12;28.27;95652.25;4916115;28;20039;-34
2022/04/02 08:13:22;;;;;;;7.60;1.65;;;;;;;26.12;28.35;95657.50;4917521;28;20023;-30
2022/04/02 08:15:51;;;;;;;4.53;2.20;;;;;;;26.12;28.17;95665.38;4922523;28;20039;-33
2022/04/02 08:18:20;;;;;;;3.00;1.60;;;;;;;26.13;28.46;95674.91;4914916;28;20044;-27
2022/04/02 08:20:45;;;;;;;4.45;1.70;;;;;;;26.14;28.28;95673.97;4935641;28;20116;-32
2022/04/02 08:23:11;;;;;;;5.75;1.88;;;;;;;26.15;28.21;95680.88;4935674;28;20040;-32
2022/04/02 08:25:36;;;;;;;4.03;1.75;;;;;;;26.14;28.50;95671.34;4921324;28;21569;-28
2022/04/02 08:28:07;;;;;;;3.40;1.58;;;;;;;26.16;28.60;95685.22;4901662;28;20102;-30
2022/04/02 08:30:33;;;;;;;4.93;1.65;;;;;;;26.17;28.65;95681.63;4918021;28;20129;-31
2022/04/02 08:33:10;;;;;;;4.82;1.63;;;;;;;26.17;28.42;95692.13;4921868;28;20051;-29
2022/04/02 08:35:45;;;;;;;5.10;1.35;;;;;;;26.16;28.52;95696.53;4919638;28;20043;-31
2022/04/02 08:38:17;;;;;;;5.07;1.98;;;;;;;26.17;28.67;95692.13;4922107;28;20118;-29
2022/04/02 08:40:45;;;;;;;;;;;;;;;26.18;28.56;95704.31;4938542;28;20043;-29
2022/04/02 08:43:31;;;;;;;4.70;1.25;;;;;;;26.17;28.53;95708.75;4926257;28;20057;-33
2022/04/02 08:46:06;;;;;;;4.53;1.83;;;;;;;26.17;28.52;95710.50;4921555;28;20039;-29
2022/04/02 08:48:35;;;;;;;3.95;1.67;;;;;;;26.17;28.46;95708.75;4935875;28;20085;-30
2022/04/02 08:51:30;;;;;;;7.38;1.75;;;;;;;26.18;28.54;95709.56;4924615;28;20126;-29
2022/04/02 08:54:04;;;;;;;7.20;1.80;;;;;;;26.18;28.75;95714.81;4924973;28;20031;-28
2022/04/02 08:56:30;;;;;;;4.68;1.60;;;;;;;26.17;28.60;95719.25;4928921;28;20044;-30
2022/04/02 08:59:01;;;;;;;6.63;1.58;;;;;;;26.18;28.58;95730.56;4923092;28;20038;-31
2022/04/02 09:01:37;;;;;;;4.30;1.23;;;;;;;26.19;28.83;95732.22;4925649;28;20407;-30
2022/04/02 09:04:41;;;;;;;2.72;1.33;;;;;;;26.20;28.73;95733.94;4934982;28;20038;-30
2022/04/02 09:07:12;;;;;;;2.47;1.50;;;;;;;26.21;28.89;95730.34;4938728;28;20058;-31
2022/04/02 09:10:01;;;;;;;3.00;1.50;;;;;;;26.21;28.37;95741.69;4923243;28;20498;-30
2022/04/02 09:12:40;;;;;;;24.95;2.28;;;;;;;26.21;28.22;95746.94;4922815;28;20110;-29
2022/04/02 09:15:11;;;;;;;12.07;2.35;;;;;;;26.22;28.09;95755.66;4922962;28;20560;-31
2022/04/02 09:17:38;;;;;;;7.80;1.42;;;;;;;26.22;28.35;95755.66;4919451;28;20037;-31
2022/04/02 09:20:20;;;;;;;4.05;1.35;;;;;;;26.21;28.78;95753.97;4923444;28;20036;-30
2022/04/02 09:23:05;;;;;;;8.00;1.83;;;;;;;26.22;28.61;95759.13;4938908;28;20034;-28
2022/04/02 09:25:37;;;;;;;5.15;1.63;;;;;;;26.23;28.81;95759.94;4923245;28;20039;-30
2022/04/02 09:28:24;;;;;;;5.32;1.50;;;;;;;26.23;28.47;95759.94;4923297;28;20039;-31
2022/04/02 09:31:08;;;;;;;3.95;1.33;;;;;;;26.24;28.44;95772.16;4924428;28;20036;-28
2022/04/02 09:33:55;;;;;;;2.90;1.45;;;;;;;26.23;28.79;95771.31;4918978;28;20160;-30
2022/04/02 09:36:45;;;;;;;3.45;1.40;;;;;;;26.24;28.32;95769.53;4923161;28;20202;-34
2022/04/02 09:39:36;;;;;;;2.90;1.08;;;;;;;26.24;28.29;95772.16;4920784;28;20046;-29
2022/04/02 09:42:38;;;;;;;6.22;1.45;;;;;;;26.23;28.60;95775.72;4934668;28;20038;-29
2022/04/02 09:45:08;;;;;;;5.03;1.50;;;;;;;26.23;28.53;95770.47;4930178;28;20103;-30
2022/04/02 09:47:48;;;;;;;5.20;1.58;;;;;;;26.23;28.69;95783.59;4924165;28;20031;-29
2022/04/02 09:50:24;;;;;;;10.23;1.77;;;;;;;26.23;28.53;95783.59;4932635;28;20035;-30
2022/04/02 09:52:58;;;;;;;14.88;1.88;;;;;;;26.22;28.11;95787.16;4941886;28;20760;-32
2022/04/02 09:55:28;;;;;;;3.60;1.40;;;;;;;26.22;27.95;95792.41;4926587;28;20046;-33
2022/04/02 09:57:56;;;;;;;5.55;1.45;;;;;;;26.21;28.39;95788.13;4929533;28;20023;-28
2022/04/02 10:00:22;;;;;;;5.25;1.45;;;;;;;26.21;28.78;95788.13;4925398;28;20720;-30
2022/04/02 10:03:08;;;;;;;6.63;1.77;;;;;;;26.23;28.25;95788.84;4918637;28;20030;-30
2022/04/02 10:05:42;;;;;;;9.35;1.88;;;;;;;26.22;28.55;95789.78;4931878;28;21615;-31
2022/04/02 10:08:45;;;;;;;5.82;1.80;;;;;;;26.23;28.31;95796.72;4932469;28;20061;-35
2022/04/02 10:11:11;;;;;;;4.57;1.52;;;;;;;26.25;28.58;95796.63;4932024;28;20051;-31
2022/04/02 10:13:36;;;;;;;7.13;1.50;;;;;;;26.25;28.58;95800.09;4948158;28;20036;-29
2022/04/02 10:16:03;;;;;;;6.32;1.67;;;;;;;26.26;28.55;95799.16;4930643;28;20622;-29
2022/04/02 10:18:29;;;;;;;3.60;1.38;;;;;;;26.27;28.77;95797.38;4926910;28;20035;-34
2022/04/02 10:20:54;;;;;;;5.50;1.73;;;;;;;26.28;28.43;95813.00;4926694;28;20024;-30
2022/04/02 10:23:21;;;;;;;6.95;1.42;;;;;;;26.29;28.73;95817.34;4924266;28;20039;-29
2022/04/02 10:26:07;;;;;;;4.32;1.67;;;;;;;26.29;28.70;95806.84;4928669;28;20027;-29
2022/04/02 10:28:33;;;;;;;11.02;1.25;;;;;;;26.30;28.60;95813.75;4927885;28;20102;-31
2022/04/02 10:31:00;;;;;;;4.90;1.52;;;;;;;26.31;28.72;95825.94;4926767;28;20067;-29
2022/04/02 10:33:29;;;;;;;5.30;1.73;;;;;;;26.32;28.11;95832.88;4927361;28;20778;-29
2022/04/02 10:35:55;;;;;;;5.20;1.63;;;;;;;26.31;28.49;95825.13;4923530;28;20031;-31
2022/04/02 10:38:31;;;;;;;6.20;1.58;;;;;;;26.31;28.60;95820.69;4921443;28;20058;-29
2022/04/02 10:40:57;;;;;;;4.80;1.80;;;;;;;26.33;28.06;95829.31;4923804;28;20035;-29
2022/04/02 10:43:26;;;;;;;7.40;1.60;;;;;;;26.34;28.54;95828.34;4921113;28;20047;-30
2022/04/02 10:45:51;;;;;;;5.07;1.70;;;;;;;26.33;28.24;95824.06;4924189;28;20414;-31
2022/04/02 10:48:24;;;;;;;7.05;1.60;;;;;;;26.33;28.30;95836.34;4922198;28;20035;-34
2022/04/02 10:50:49;;;;;;;7.55;1.73;;;;;;;26.32;28.20;95827.63;4924165;28;20035;-30
2022/04/02 10:53:17;;;;;;;5.88;1.60;;;;;;;26.35;28.16;95837.06;4933242;28;20083;-29
2022/04/02 10:55:47;;;;;;;3.75;1.50;;;;;;;26.33;28.37;95834.56;4930401;28;20077;-31
2022/04/02 10:58:13;;;;;;;6.68;1.38;;;;;;;26.34;28.03;95840.63;4928723;28;20494;-30
2022/04/02 11:00:39;;;;;;;5.40;2.05;;;;;;;26.33;28.03;95837.19;4930453;28;20116;-30
2022/04/02 11:03:05;;;;;;;7.30;1.50;;;;;;;26.33;28.26;95842.44;4922469;28;20783;-30
2022/04/02 11:05:37;;;;;;;4.18;1.27;;;;;;;26.31;27.64;95841.69;4925308;28;20086;-30
2022/04/02 11:08:24;;;;;;;3.72;1.50;;;;;;;26.28;28.72;95841.91;4920855;28;20058;-32
2022/04/02 11:10:49;;;;;;;6.65;1.50;;;;;;;26.27;28.91;95848.13;4918288;28;20114;-33
2022/04/02 11:13:29;;;;;;;7.68;1.40;;;;;;;26.27;28.95;95845.47;4921830;28;20037;-28
2022/04/02 11:15:55;;;;;;;4.65;1.27;;;;;;;26.30;29.34;95853.16;4921679;28;20486;-30
2022/04/02 11:18:20;;;;;;;10.77;1.25;;;;;;;26.37;29.01;95856.19;4925449;28;20124;-28
2022/04/02 11:20:47;;;;;;;4.82;1.20;;;;;;;26.46;28.91;95859.94;4926052;28;20715;-34
2022/04/02 11:23:20;;;;;;;5.93;1.80;;;;;;;26.56;28.90;95849.63;4920596;28;20031;-30
2022/04/02 11:25:55;;;;;;;2.10;1.20;;;;;;;26.69;28.70;95857.50;4937256;28;20583;-29
2022/04/02 11:28:22;;;;;;;3.58;1.10;;;;;;;26.80;28.29;95862.81;4919933;28;20030;-32
2022/04/02 11:30:51;;;;;;;3.17;1.35;;;;;;;26.91;28.05;95858.53;4928244;28;20138;-28
2022/04/02 11:33:22;;;;;;;3.88;1.13;;;;;;;27.02;28.16;95868.31;4919955;28;20035;-30
2022/04/02 11:35:55;;;;;;;4.18;1.85;;;;;;;27.11;28.13;95876.38;4921481;28;20138;-28
2022/04/02 11:38:20;;;;;;;4.15;1.42;;;;;;;27.21;27.60;95876.56;4922198;28;20055;-29
2022/04/02 11:41:23;;;;;;;2.20;1.15;;;;;;;27.32;27.53;95881.03;4906419;29;20035;-30